Flight Track Log - Related Links

Times and Time Zones

All times are in EDT time to prevent confusion due to time zone crossing. See the N273SK flight status page for this flight to view local times or setup timezone preferences in your user account.

Time Position Orientation Groundspeed Altitude Reporting Facility
EDT Latitude Longitude Course Direction KTS MPH feet Rate Location/Type
Tue 06:15:05 AM 43.0994 -77.6972 90° East 149 171 1,200  Level Cleveland Center
Tue 06:15:54 AM 43.0683 -77.7042 189° South 177 204 2,800 1,953 Climbing Cleveland Center
Tue 06:17:14 AM 43.0347 -77.6092 116° Southeast 251 289 5,400 2,186 Climbing Cleveland Center
Tue 06:18:00 AM 42.9134 -77.2167 119° Southeast  Level FlightAware Approximate
Tue 06:18:14 AM 43.0075 -77.5253 114° Southeast 251 289 7,900  Level Cleveland Center
Tue 06:19:00 AM 42.8619 -77.1017 121° Southeast  Level FlightAware Approximate
Tue 06:19:14 AM 42.9758 -77.4361 116° Southeast 251 289 9,800  Level Cleveland Center
Tue 06:20:00 AM 42.8167 -76.9843 90° East  Level FlightAware Approximate
Tue 06:20:14 AM 42.9419 -77.3356 115° Southeast 263 303 11,500  Level Cleveland Center
Tue 06:21:14 AM 42.9033 -77.2244 115° Southeast 295 339 13,000 1,700 Climbing Cleveland Center
Tue 06:22:14 AM 42.8644 -77.1131 115° Southeast 313 360 14,900 1,765 Climbing Cleveland Center
Tue 06:22:39 AM 42.8481 -77.0683 117° Southeast 323 372 15,500 1,341 Climbing Boston Center
Tue 06:23:39 AM 42.8050 -76.9519 117° Southeast 333 383 16,800 1,250 Climbing Boston Center
Tue 06:24:39 AM 42.7531 -76.8378 122° Southeast 344 396 18,000 1,700 Climbing Boston Center
Tue 06:25:39 AM 42.7031 -76.7239 121° Southeast 349 402 20,200 1,850 Climbing Boston Center
Tue 06:26:39 AM 42.6533 -76.6103 121° Southeast 349 402 21,700 1,500 Climbing Boston Center
Tue 06:27:39 AM 42.6011 -76.4967 122° Southeast 354 407 23,200 1,400 Climbing Boston Center
Tue 06:28:39 AM 42.5508 -76.3836 121° Southeast 354 407 24,500 900 Climbing Boston Center
Tue 06:29:39 AM 42.4964 -76.2644 122° Southeast 359 413 25,000 250 Climbing Boston Center
Tue 06:30:39 AM 42.4486 -76.1378 117° Southeast 332 382 25,000  Level Boston Center
Tue 06:31:39 AM 42.4383 -75.9992 96° East 336 387 25,000  Level Boston Center
Tue 06:32:39 AM 42.4997 -75.9042 49° Northeast 349 402 25,000  Level Boston Center
Tue 06:33:39 AM 42.5839 -75.8072 40° Northeast 355 409 25,000  Level Boston Center
Tue 06:34:39 AM 42.6022 -75.6842 79° East 327 376 25,000  Level Boston Center
Tue 06:35:39 AM 42.5169 -75.6036 145° Southeast 333 383 25,000  Level Boston Center
Tue 06:36:39 AM 42.4144 -75.5394 155° Southeast 369 425 25,000  Level Boston Center
Tue 06:37:39 AM 42.3119 -75.4753 155° Southeast 393 452 25,000  Level Boston Center
Tue 06:38:39 AM 42.2094 -75.4058 153° Southeast 405 466 25,000  Level Boston Center
Tue 06:39:39 AM 42.1050 -75.3392 155° Southeast 417 480 25,000  Level Boston Center
Tue 06:40:39 AM 42.0372 -75.2158 126° Southeast 409 471 25,000  Level Boston Center
Tue 06:41:39 AM 41.9969 -75.0661 110° East 398 458 25,000  Level Boston Center
Tue 06:42:39 AM 41.9586 -74.9136 109° East 404 465 25,000  Level Boston Center
Tue 06:43:39 AM 41.9200 -74.7669 109° East 418 481 25,000  Level Boston Center
Tue 06:44:39 AM 41.8814 -74.6150 109° East 418 481 25,000 -50 Level Boston Center
Tue 06:45:39 AM 41.8425 -74.4689 110° East 423 487 24,900 -1,052 Descending Boston Center
Tue 06:47:53 AM 41.6972 -74.1936 125° Southeast 384 442 21,600 -1,415 Descending New York Center
Tue 06:48:54 AM 41.5942 -74.1494 162° South 375 432 20,300 -814 Descending New York Center
Tue 06:49:51 AM 41.5081 -74.1119 162° South 370 426 20,000 -154 Descending New York Center
Tue 06:50:51 AM 41.4047 -74.0819 168° South 375 432 20,000  Level New York Center
Tue 06:51:52 AM 41.3056 -74.1294 200° South 367 422 20,000  Level New York Center
Tue 06:52:51 AM 41.2136 -74.2050 212° Southwest 367 422 20,000  Level New York Center
Tue 06:53:52 AM 41.1261 -74.2775 212° Southwest 380 437 20,000 -450 Level New York Center
Tue 06:54:51 AM 41.0297 -74.2972 189° South 375 432 19,100 -645 Descending New York Center
Tue 06:55:25 AM 40.9833 -74.2500 142° Southeast 334 384 19,000 -64 Descending New York TRACON
Tue 06:56:25 AM 40.9167 -74.1667 137° Southeast 334 384 19,000 -400 Level New York TRACON
Tue 06:57:25 AM 40.8333 -74.1167 156° South 328 377 18,200 -1,091 Descending New York TRACON
Tue 06:58:26 AM 40.7500 -74.0833 163° South 310 357 16,800 -1,488 Descending New York TRACON
Tue 06:59:26 AM 40.6667 -74.0500 163° South 297 342 15,200 -1,700 Descending New York TRACON
Tue 07:00:26 AM 40.6000 -74.0333 169° South 293 337 13,400 -1,100 Descending New York TRACON
Tue 07:01:26 AM 40.5167 -74.0000 163° South 292 336 13,000 -200 Descending New York TRACON
Tue 07:02:26 AM 40.4500 -73.9667 159° South 284 327 13,000 -750 Level New York TRACON
Tue 07:03:26 AM 40.3833 -73.9000 143° Southeast 252 290 11,500 -1,379 Descending New York TRACON
Tue 07:03:53 AM 40.3686 -73.8764 129° Southeast 253 291 11,000 -1,500 Descending New York Center
Tue 07:04:26 AM 40.3333 -73.8333 137° Southeast 246 283 10,000 -1,484 Descending New York TRACON
Tue 07:05:26 AM 40.2833 -73.7833 143° Southeast 233 268 8,700 -1,450 Descending New York TRACON
Tue 07:06:26 AM 40.2833 -73.7167 90° East 245 282 7,100 -1,500 Descending New York TRACON
Tue 07:07:26 AM 40.3500 -73.6833 21° North 233 268 5,700 -1,240 Descending New York TRACON
Tue 07:08:27 AM 40.4000 -73.6333 37° Northeast 227 261 4,600 -1,140 Descending New York TRACON
Tue 07:09:27 AM 40.4667 -73.6167 11° North 214 246 3,400 -800 Descending New York TRACON
Tue 07:10:27 AM 40.5167 -73.5833 27° Northeast 187 215 3,000 -400 Descending New York TRACON

Login

Don't have an account? Register now (free) for customized features, flight alerts, and more!